sensor_id;sensor_type;location;lat;lon;timestamp;P1;durP1;ratioP1;P2;durP2;ratioP2
24745;SDS011;12845;52.042;6.838;2023-04-01T00:00:56;7.05;;;3.35;;
24745;SDS011;12845;52.042;6.838;2023-04-01T00:03:23;7.93;;;4.20;;
24745;SDS011;12845;52.042;6.838;2023-04-01T00:05:50;8.75;;;4.00;;
24745;SDS011;12845;52.042;6.838;2023-04-01T00:08:16;6.53;;;3.97;;
24745;SDS011;12845;52.042;6.838;2023-04-01T00:10:42;6.15;;;4.15;;
24745;SDS011;12845;52.042;6.838;2023-04-01T00:13:08;5.55;;;3.78;;
24745;SDS011;12845;52.042;6.838;2023-04-01T00:15:34;8.75;;;3.80;;
24745;SDS011;12845;52.042;6.838;2023-04-01T00:18:00;5.45;;;3.42;;
24745;SDS011;12845;52.042;6.838;2023-04-01T00:20:25;5.78;;;3.47;;
24745;SDS011;12845;52.042;6.838;2023-04-01T00:22:51;5.47;;;3.30;;
24745;SDS011;12845;52.042;6.838;2023-04-01T00:25:16;7.28;;;3.90;;
24745;SDS011;12845;52.042;6.838;2023-04-01T00:27:42;8.85;;;4.78;;
24745;SDS011;12845;52.042;6.838;2023-04-01T00:30:07;6.13;;;3.80;;
24745;SDS011;12845;52.042;6.838;2023-04-01T00:32:34;8.68;;;4.65;;
24745;SDS011;12845;52.042;6.838;2023-04-01T00:35:00;8.90;;;4.30;;
24745;SDS011;12845;52.042;6.838;2023-04-01T00:37:26;4.90;;;3.85;;
24745;SDS011;12845;52.042;6.838;2023-04-01T00:39:53;6.53;;;4.10;;
24745;SDS011;12845;52.042;6.838;2023-04-01T00:42:19;7.82;;;4.70;;
24745;SDS011;12845;52.042;6.838;2023-04-01T00:44:45;5.18;;;4.40;;
24745;SDS011;12845;52.042;6.838;2023-04-01T00:47:15;5.53;;;4.07;;
24745;SDS011;12845;52.042;6.838;2023-04-01T00:49:42;5.10;;;4.05;;
24745;SDS011;12845;52.042;6.838;2023-04-01T00:52:11;6.57;;;3.85;;
24745;SDS011;12845;52.042;6.838;2023-04-01T00:54:39;4.82;;;3.83;;
24745;SDS011;12845;52.042;6.838;2023-04-01T01:00:09;5.70;;;4.60;;
24745;SDS011;12845;52.042;6.838;2023-04-01T01:02:38;5.88;;;4.35;;
24745;SDS011;12845;52.042;6.838;2023-04-01T01:05:07;6.82;;;4.65;;
24745;SDS011;12845;52.042;6.838;2023-04-01T01:07:38;6.38;;;4.07;;
24745;SDS011;12845;52.042;6.838;2023-04-01T01:10:19;6.57;;;4.28;;
24745;SDS011;12845;52.042;6.838;2023-04-01T01:13:05;5.35;;;4.35;;
24745;SDS011;12845;52.042;6.838;2023-04-01T01:31:37;6.28;;;4.70;;
24745;SDS011;12845;52.042;6.838;2023-04-01T01:37:15;7.57;;;4.53;;
24745;SDS011;12845;52.042;6.838;2023-04-01T01:39:44;7.15;;;4.57;;
24745;SDS011;12845;52.042;6.838;2023-04-01T01:42:16;5.13;;;4.35;;
24745;SDS011;12845;52.042;6.838;2023-04-01T01:44:45;6.10;;;4.60;;
24745;SDS011;12845;52.042;6.838;2023-04-01T01:47:13;4.95;;;4.28;;
24745;SDS011;12845;52.042;6.838;2023-04-01T01:49:40;5.75;;;3.75;;
24745;SDS011;12845;52.042;6.838;2023-04-01T01:52:08;6.70;;;3.95;;
24745;SDS011;12845;52.042;6.838;2023-04-01T01:54:33;4.10;;;3.70;;
24745;SDS011;12845;52.042;6.838;2023-04-01T01:57:08;7.72;;;4.32;;
24745;SDS011;12845;52.042;6.838;2023-04-01T01:59:36;5.15;;;4.30;;
24745;SDS011;12845;52.042;6.838;2023-04-01T02:02:04;6.00;;;4.35;;
24745;SDS011;12845;52.042;6.838;2023-04-01T02:04:37;6.05;;;4.07;;
24745;SDS011;12845;52.042;6.838;2023-04-01T02:07:24;7.00;;;4.10;;
24745;SDS011;12845;52.042;6.838;2023-04-01T02:09:55;6.15;;;4.22;;
24745;SDS011;12845;52.042;6.838;2023-04-01T02:12:21;9.40;;;4.90;;
24745;SDS011;12845;52.042;6.838;2023-04-01T02:14:58;8.95;;;4.20;;
24745;SDS011;12845;52.042;6.838;2023-04-01T02:17:30;7.50;;;4.07;;
24745;SDS011;12845;52.042;6.838;2023-04-01T02:19:59;8.27;;;4.10;;
24745;SDS011;12845;52.042;6.838;2023-04-01T02:22:31;8.43;;;4.63;;
24745;SDS011;12845;52.042;6.838;2023-04-01T02:24:59;6.15;;;4.75;;
24745;SDS011;12845;52.042;6.838;2023-04-01T02:27:30;6.57;;;3.90;;
24745;SDS011;12845;52.042;6.838;2023-04-01T02:29:56;7.03;;;4.53;;
24745;SDS011;12845;52.042;6.838;2023-04-01T02:32:23;7.30;;;4.68;;
24745;SDS011;12845;52.042;6.838;2023-04-01T02:34:50;10.95;;;4.97;;
24745;SDS011;12845;52.042;6.838;2023-04-01T02:37:16;7.70;;;4.85;;
24745;SDS011;12845;52.042;6.838;2023-04-01T02:39:42;8.23;;;6.40;;
24745;SDS011;12845;52.042;6.838;2023-04-01T02:42:08;7.38;;;5.00;;
24745;SDS011;12845;52.042;6.838;2023-04-01T02:44:34;8.27;;;6.15;;
24745;SDS011;12845;52.042;6.838;2023-04-01T02:47:00;8.00;;;5.88;;
24745;SDS011;12845;52.042;6.838;2023-04-01T02:49:25;7.47;;;5.43;;
24745;SDS011;12845;52.042;6.838;2023-04-01T02:51:50;9.90;;;5.63;;
24745;SDS011;12845;52.042;6.838;2023-04-01T02:54:16;10.23;;;6.32;;
24745;SDS011;12845;52.042;6.838;2023-04-01T02:56:42;9.00;;;6.43;;
24745;SDS011;12845;52.042;6.838;2023-04-01T02:59:08;7.50;;;5.22;;
24745;SDS011;12845;52.042;6.838;2023-04-01T03:01:33;8.05;;;6.43;;
24745;SDS011;12845;52.042;6.838;2023-04-01T03:03:59;9.02;;;5.88;;
24745;SDS011;12845;52.042;6.838;2023-04-01T03:06:24;7.95;;;6.28;;
24745;SDS011;12845;52.042;6.838;2023-04-01T03:08:50;8.27;;;6.30;;
24745;SDS011;12845;52.042;6.838;2023-04-01T03:11:15;10.35;;;6.43;;
24745;SDS011;12845;52.042;6.838;2023-04-01T03:13:41;9.82;;;7.15;;
24745;SDS011;12845;52.042;6.838;2023-04-01T03:16:06;8.48;;;5.60;;
24745;SDS011;12845;52.042;6.838;2023-04-01T03:18:32;9.00;;;6.47;;
24745;SDS011;12845;52.042;6.838;2023-04-01T03:20:57;9.23;;;6.03;;
24745;SDS011;12845;52.042;6.838;2023-04-01T03:23:47;9.95;;;6.97;;
24745;SDS011;12845;52.042;6.838;2023-04-01T03:26:12;11.02;;;7.53;;
24745;SDS011;12845;52.042;6.838;2023-04-01T03:28:38;9.20;;;7.13;;
24745;SDS011;12845;52.042;6.838;2023-04-01T03:31:04;11.57;;;7.85;;
24745;SDS011;12845;52.042;6.838;2023-04-01T03:33:30;10.95;;;8.18;;
24745;SDS011;12845;52.042;6.838;2023-04-01T03:35:56;12.65;;;8.25;;
24745;SDS011;12845;52.042;6.838;2023-04-01T03:38:21;11.77;;;7.07;;
24745;SDS011;12845;52.042;6.838;2023-04-01T03:40:46;7.75;;;5.70;;
24745;SDS011;12845;52.042;6.838;2023-04-01T03:43:12;10.57;;;7.15;;
24745;SDS011;12845;52.042;6.838;2023-04-01T03:45:44;11.77;;;7.78;;
24745;SDS011;12845;52.042;6.838;2023-04-01T03:48:10;11.65;;;8.32;;
24745;SDS011;12845;52.042;6.838;2023-04-01T03:50:35;10.82;;;7.75;;
24745;SDS011;12845;52.042;6.838;2023-04-01T03:53:01;8.77;;;6.50;;
24745;SDS011;12845;52.042;6.838;2023-04-01T03:55:26;13.25;;;9.05;;
24745;SDS011;12845;52.042;6.838;2023-04-01T03:57:52;14.48;;;8.23;;
24745;SDS011;12845;52.042;6.838;2023-04-01T04:00:17;10.25;;;6.38;;
24745;SDS011;12845;52.042;6.838;2023-04-01T04:02:43;12.30;;;8.10;;
24745;SDS011;12845;52.042;6.838;2023-04-01T04:05:08;13.10;;;9.25;;
24745;SDS011;12845;52.042;6.838;2023-04-01T04:07:36;13.93;;;9.05;;
24745;SDS011;12845;52.042;6.838;2023-04-01T04:10:02;12.65;;;9.15;;
24745;SDS011;12845;52.042;6.838;2023-04-01T04:12:28;14.55;;;10.15;;
24745;SDS011;12845;52.042;6.838;2023-04-01T04:14:53;15.30;;;10.10;;
24745;SDS011;12845;52.042;6.838;2023-04-01T04:17:18;15.45;;;9.23;;
24745;SDS011;12845;52.042;6.838;2023-04-01T04:19:44;13.98;;;9.07;;
24745;SDS011;12845;52.042;6.838;2023-04-01T04:22:09;15.10;;;9.45;;
24745;SDS011;12845;52.042;6.838;2023-04-01T04:24:35;13.25;;;8.65;;
24745;SDS011;12845;52.042;6.838;2023-04-01T04:27:00;13.25;;;7.93;;
24745;SDS011;12845;52.042;6.838;2023-04-01T04:29:26;14.00;;;9.00;;
24745;SDS011;12845;52.042;6.838;2023-04-01T04:31:51;15.85;;;10.95;;
24745;SDS011;12845;52.042;6.838;2023-04-01T04:34:17;13.75;;;9.30;;
24745;SDS011;12845;52.042;6.838;2023-04-01T04:36:43;11.95;;;7.97;;
24745;SDS011;12845;52.042;6.838;2023-04-01T04:39:09;17.17;;;10.90;;
24745;SDS011;12845;52.042;6.838;2023-04-01T04:41:36;16.83;;;8.93;;
24745;SDS011;12845;52.042;6.838;2023-04-01T04:44:02;15.75;;;9.77;;
24745;SDS011;12845;52.042;6.838;2023-04-01T04:46:28;16.27;;;9.65;;
24745;SDS011;12845;52.042;6.838;2023-04-01T04:48:53;16.13;;;10.10;;
24745;SDS011;12845;52.042;6.838;2023-04-01T04:51:19;15.43;;;8.68;;
24745;SDS011;12845;52.042;6.838;2023-04-01T04:53:45;15.15;;;9.32;;
24745;SDS011;12845;52.042;6.838;2023-04-01T04:56:10;14.85;;;9.05;;
24745;SDS011;12845;52.042;6.838;2023-04-01T04:58:36;14.75;;;9.27;;
24745;SDS011;12845;52.042;6.838;2023-04-01T05:01:09;12.63;;;8.73;;
24745;SDS011;12845;52.042;6.838;2023-04-01T05:03:36;13.85;;;8.98;;
24745;SDS011;12845;52.042;6.838;2023-04-01T05:06:02;13.25;;;8.52;;
24745;SDS011;12845;52.042;6.838;2023-04-01T05:08:28;15.77;;;9.40;;
24745;SDS011;12845;52.042;6.838;2023-04-01T05:10:53;15.48;;;9.65;;
24745;SDS011;12845;52.042;6.838;2023-04-01T05:13:19;13.15;;;8.27;;
24745;SDS011;12845;52.042;6.838;2023-04-01T05:15:44;14.18;;;9.05;;
24745;SDS011;12845;52.042;6.838;2023-04-01T05:18:10;13.18;;;8.05;;
24745;SDS011;12845;52.042;6.838;2023-04-01T05:20:35;14.00;;;9.20;;
24745;SDS011;12845;52.042;6.838;2023-04-01T05:23:01;14.10;;;9.25;;
24745;SDS011;12845;52.042;6.838;2023-04-01T05:25:26;18.13;;;9.82;;
24745;SDS011;12845;52.042;6.838;2023-04-01T05:27:51;14.43;;;8.90;;
24745;SDS011;12845;52.042;6.838;2023-04-01T05:30:17;16.63;;;10.02;;
24745;SDS011;12845;52.042;6.838;2023-04-01T05:32:43;15.10;;;10.00;;
24745;SDS011;12845;52.042;6.838;2023-04-01T05:35:09;16.67;;;9.73;;
24745;SDS011;12845;52.042;6.838;2023-04-01T05:37:35;16.30;;;9.07;;
24745;SDS011;12845;52.042;6.838;2023-04-01T05:40:01;16.90;;;10.43;;
24745;SDS011;12845;52.042;6.838;2023-04-01T05:42:26;15.55;;;8.98;;
24745;SDS011;12845;52.042;6.838;2023-04-01T05:44:51;15.63;;;9.73;;
24745;SDS011;12845;52.042;6.838;2023-04-01T05:47:17;15.80;;;9.32;;
24745;SDS011;12845;52.042;6.838;2023-04-01T05:49:43;17.58;;;10.55;;
24745;SDS011;12845;52.042;6.838;2023-04-01T05:52:08;17.42;;;9.98;;
24745;SDS011;12845;52.042;6.838;2023-04-01T05:54:33;16.38;;;10.77;;
24745;SDS011;12845;52.042;6.838;2023-04-01T05:56:59;19.45;;;10.52;;
24745;SDS011;12845;52.042;6.838;2023-04-01T05:59:24;15.85;;;9.82;;
24745;SDS011;12845;52.042;6.838;2023-04-01T06:01:50;18.73;;;10.73;;
24745;SDS011;12845;52.042;6.838;2023-04-01T06:04:16;18.98;;;11.18;;
24745;SDS011;12845;52.042;6.838;2023-04-01T06:06:42;16.75;;;9.93;;
24745;SDS011;12845;52.042;6.838;2023-04-01T06:09:12;17.80;;;11.65;;
24745;SDS011;12845;52.042;6.838;2023-04-01T06:11:42;18.45;;;11.45;;
24745;SDS011;12845;52.042;6.838;2023-04-01T06:16:58;17.25;;;10.20;;
24745;SDS011;12845;52.042;6.838;2023-04-01T06:22:14;18.30;;;10.02;;
24745;SDS011;12845;52.042;6.838;2023-04-01T06:33:29;19.17;;;10.80;;
24745;SDS011;12845;52.042;6.838;2023-04-01T06:36:05;19.40;;;11.52;;
24745;SDS011;12845;52.042;6.838;2023-04-01T06:38:58;16.25;;;9.07;;
24745;SDS011;12845;52.042;6.838;2023-04-01T06:54:55;20.15;;;12.32;;
24745;SDS011;12845;52.042;6.838;2023-04-01T06:57:31;25.75;;;14.52;;
24745;SDS011;12845;52.042;6.838;2023-04-01T07:00:14;20.60;;;12.30;;
24745;SDS011;12845;52.042;6.838;2023-04-01T07:05:31;15.27;;;8.98;;
24745;SDS011;12845;52.042;6.838;2023-04-01T07:07:57;16.25;;;9.07;;
24745;SDS011;12845;52.042;6.838;2023-04-01T07:13:02;15.23;;;8.52;;
24745;SDS011;12845;52.042;6.838;2023-04-01T07:15:37;12.05;;;8.43;;
24745;SDS011;12845;52.042;6.838;2023-04-01T07:18:11;18.10;;;9.65;;
24745;SDS011;12845;52.042;6.838;2023-04-01T07:20:41;17.65;;;9.80;;
24745;SDS011;12845;52.042;6.838;2023-04-01T07:23:10;13.90;;;9.25;;
24745;SDS011;12845;52.042;6.838;2023-04-01T07:25:45;16.08;;;9.68;;
24745;SDS011;12845;52.042;6.838;2023-04-01T07:28:16;15.07;;;9.70;;
24745;SDS011;12845;52.042;6.838;2023-04-01T07:35:59;11.98;;;7.95;;
24745;SDS011;12845;52.042;6.838;2023-04-01T07:38:39;15.43;;;10.25;;
24745;SDS011;12845;52.042;6.838;2023-04-01T07:44:02;12.95;;;9.40;;
24745;SDS011;12845;52.042;6.838;2023-04-01T07:54:32;11.85;;;8.10;;
24745;SDS011;12845;52.042;6.838;2023-04-01T07:59:52;14.18;;;8.88;;
24745;SDS011;12845;52.042;6.838;2023-04-01T08:02:22;13.02;;;8.48;;
24745;SDS011;12845;52.042;6.838;2023-04-01T08:05:04;14.02;;;8.85;;
24745;SDS011;12845;52.042;6.838;2023-04-01T08:07:35;10.23;;;6.72;;
24745;SDS011;12845;52.042;6.838;2023-04-01T08:12:52;11.93;;;6.60;;
24745;SDS011;12845;52.042;6.838;2023-04-01T08:15:33;9.63;;;6.13;;
24745;SDS011;12845;52.042;6.838;2023-04-01T08:21:05;10.27;;;7.57;;
24745;SDS011;12845;52.042;6.838;2023-04-01T08:23:43;9.30;;;6.72;;
24745;SDS011;12845;52.042;6.838;2023-04-01T08:29:04;10.20;;;6.35;;
24745;SDS011;12845;52.042;6.838;2023-04-01T08:31:43;9.48;;;6.38;;
24745;SDS011;12845;52.042;6.838;2023-04-01T08:34:21;11.60;;;7.47;;
24745;SDS011;12845;52.042;6.838;2023-04-01T08:36:57;11.20;;;7.13;;
24745;SDS011;12845;52.042;6.838;2023-04-01T08:56:39;12.52;;;7.57;;
24745;SDS011;12845;52.042;6.838;2023-04-01T08:59:41;14.52;;;8.82;;
24745;SDS011;12845;52.042;6.838;2023-04-01T09:05:20;17.63;;;10.82;;
24745;SDS011;12845;52.042;6.838;2023-04-01T09:08:02;17.27;;;10.02;;
24745;SDS011;12845;52.042;6.838;2023-04-01T09:23:51;15.93;;;9.38;;
24745;SDS011;12845;52.042;6.838;2023-04-01T09:40:21;12.98;;;8.60;;
24745;SDS011;12845;52.042;6.838;2023-04-01T09:43:21;13.85;;;8.68;;
24745;SDS011;12845;52.042;6.838;2023-04-01T09:45:57;11.82;;;7.90;;
24745;SDS011;12845;52.042;6.838;2023-04-01T09:51:17;13.60;;;8.45;;
24745;SDS011;12845;52.042;6.838;2023-04-01T09:53:54;13.00;;;8.20;;
24745;SDS011;12845;52.042;6.838;2023-04-01T10:16:03;13.82;;;8.93;;
24745;SDS011;12845;52.042;6.838;2023-04-01T10:19:03;10.15;;;7.22;;
24745;SDS011;12845;52.042;6.838;2023-04-01T10:22:04;7.80;;;6.20;;
24745;SDS011;12845;52.042;6.838;2023-04-01T10:32:55;9.73;;;7.22;;
24745;SDS011;12845;52.042;6.838;2023-04-01T10:52:05;11.90;;;7.40;;
24745;SDS011;12845;52.042;6.838;2023-04-01T11:09:29;12.77;;;8.40;;
24745;SDS011;12845;52.042;6.838;2023-04-01T11:20:57;11.13;;;7.65;;
24745;SDS011;12845;52.042;6.838;2023-04-01T11:26:07;9.35;;;6.75;;
24745;SDS011;12845;52.042;6.838;2023-04-01T11:31:24;7.13;;;5.05;;
24745;SDS011;12845;52.042;6.838;2023-04-01T11:33:54;6.80;;;5.55;;
24745;SDS011;12845;52.042;6.838;2023-04-01T11:39:27;7.93;;;6.00;;
24745;SDS011;12845;52.042;6.838;2023-04-01T11:44:38;5.63;;;3.95;;
24745;SDS011;12845;52.042;6.838;2023-04-01T11:47:24;5.38;;;3.92;;
24745;SDS011;12845;52.042;6.838;2023-04-01T11:50:11;7.60;;;4.30;;
24745;SDS011;12845;52.042;6.838;2023-04-01T12:14:37;6.80;;;4.88;;
24745;SDS011;12845;52.042;6.838;2023-04-01T12:17:18;6.82;;;4.40;;
24745;SDS011;12845;52.042;6.838;2023-04-01T12:20:36;5.75;;;4.53;;
24745;SDS011;12845;52.042;6.838;2023-04-01T12:31:23;4.72;;;4.10;;
24745;SDS011;12845;52.042;6.838;2023-04-01T12:37:06;7.97;;;7.18;;
24745;SDS011;12845;52.042;6.838;2023-04-01T12:42:51;5.50;;;4.40;;
24745;SDS011;12845;52.042;6.838;2023-04-01T12:45:32;6.28;;;4.30;;
24745;SDS011;12845;52.042;6.838;2023-04-01T12:51:11;10.52;;;8.07;;
24745;SDS011;12845;52.042;6.838;2023-04-01T12:57:02;5.93;;;4.63;;
24745;SDS011;12845;52.042;6.838;2023-04-01T12:59:54;6.10;;;5.47;;
24745;SDS011;12845;52.042;6.838;2023-04-01T13:05:13;8.32;;;7.53;;
24745;SDS011;12845;52.042;6.838;2023-04-01T13:13:28;8.10;;;7.07;;
24745;SDS011;12845;52.042;6.838;2023-04-01T13:16:23;7.43;;;6.13;;
24745;SDS011;12845;52.042;6.838;2023-04-01T13:21:27;6.45;;;5.53;;
24745;SDS011;12845;52.042;6.838;2023-04-01T13:27:18;6.07;;;5.18;;
24745;SDS011;12845;52.042;6.838;2023-04-01T13:32:54;7.20;;;6.20;;
24745;SDS011;12845;52.042;6.838;2023-04-01T13:43:45;8.63;;;6.93;;
24745;SDS011;12845;52.042;6.838;2023-04-01T14:03:13;43.75;;;35.15;;
24745;SDS011;12845;52.042;6.838;2023-04-01T14:11:48;10.43;;;8.13;;
24745;SDS011;12845;52.042;6.838;2023-04-01T14:17:27;9.55;;;8.02;;
24745;SDS011;12845;52.042;6.838;2023-04-01T14:20:56;8.23;;;7.25;;
24745;SDS011;12845;52.042;6.838;2023-04-01T14:33:57;9.68;;;8.63;;
24745;SDS011;12845;52.042;6.838;2023-04-01T14:50:53;8.20;;;7.40;;
24745;SDS011;12845;52.042;6.838;2023-04-01T14:53:28;9.93;;;9.02;;
24745;SDS011;12845;52.042;6.838;2023-04-01T14:55:57;10.75;;;9.75;;
24745;SDS011;12845;52.042;6.838;2023-04-01T14:58:25;8.70;;;7.90;;
24745;SDS011;12845;52.042;6.838;2023-04-01T15:01:13;41.20;;;23.77;;
24745;SDS011;12845;52.042;6.838;2023-04-01T15:12:45;8.40;;;7.50;;
24745;SDS011;12845;52.042;6.838;2023-04-01T15:15:21;12.50;;;11.30;;
24745;SDS011;12845;52.042;6.838;2023-04-01T15:32:16;9.07;;;8.13;;
24745;SDS011;12845;52.042;6.838;2023-04-01T15:42:55;10.13;;;8.98;;
24745;SDS011;12845;52.042;6.838;2023-04-01T15:53:44;12.25;;;11.05;;
24745;SDS011;12845;52.042;6.838;2023-04-01T16:01:50;10.40;;;8.38;;
24745;SDS011;12845;52.042;6.838;2023-04-01T16:12:48;9.38;;;8.40;;
24745;SDS011;12845;52.042;6.838;2023-04-01T16:15:26;8.10;;;7.15;;
24745;SDS011;12845;52.042;6.838;2023-04-01T16:18:07;7.72;;;6.93;;
24745;SDS011;12845;52.042;6.838;2023-04-01T16:20:57;14.63;;;13.15;;
24745;SDS011;12845;52.042;6.838;2023-04-01T16:26:31;7.05;;;6.32;;
24745;SDS011;12845;52.042;6.838;2023-04-01T16:32:02;8.18;;;7.43;;
24745;SDS011;12845;52.042;6.838;2023-04-01T16:37:33;6.13;;;5.53;;
24745;SDS011;12845;52.042;6.838;2023-04-01T16:43:28;7.22;;;6.55;;
24745;SDS011;12845;52.042;6.838;2023-04-01T16:51:40;5.70;;;5.20;;
24745;SDS011;12845;52.042;6.838;2023-04-01T16:56:50;5.43;;;4.93;;
24745;SDS011;12845;52.042;6.838;2023-04-01T16:59:26;5.40;;;4.90;;
24745;SDS011;12845;52.042;6.838;2023-04-01T17:04:39;5.88;;;5.38;;
24745;SDS011;12845;52.042;6.838;2023-04-01T17:07:18;5.45;;;4.95;;
24745;SDS011;12845;52.042;6.838;2023-04-01T17:14:59;5.30;;;4.80;;
24745;SDS011;12845;52.042;6.838;2023-04-01T17:17:49;7.50;;;6.90;;
24745;SDS011;12845;52.042;6.838;2023-04-01T17:20:43;7.28;;;5.47;;
24745;SDS011;12845;52.042;6.838;2023-04-01T17:23:18;6.97;;;6.13;;
24745;SDS011;12845;52.042;6.838;2023-04-01T17:26:12;8.25;;;6.97;;
24745;SDS011;12845;52.042;6.838;2023-04-01T17:39:54;6.82;;;6.22;;
24745;SDS011;12845;52.042;6.838;2023-04-01T17:45:56;8.40;;;7.60;;
24745;SDS011;12845;52.042;6.838;2023-04-01T18:01:26;16.05;;;12.93;;
24745;SDS011;12845;52.042;6.838;2023-04-01T18:04:06;6.15;;;5.18;;
24745;SDS011;12845;52.042;6.838;2023-04-01T18:22:48;9.02;;;7.65;;
24745;SDS011;12845;52.042;6.838;2023-04-01T18:25:27;10.40;;;8.38;;
24745;SDS011;12845;52.042;6.838;2023-04-01T18:30:43;12.23;;;9.88;;
24745;SDS011;12845;52.042;6.838;2023-04-01T18:33:31;7.47;;;6.32;;
24745;SDS011;12845;52.042;6.838;2023-04-01T18:51:51;13.23;;;9.93;;
24745;SDS011;12845;52.042;6.838;2023-04-01T18:54:32;7.18;;;6.30;;
24745;SDS011;12845;52.042;6.838;2023-04-01T18:57:10;4.85;;;4.05;;
24745;SDS011;12845;52.042;6.838;2023-04-01T18:59:39;7.20;;;5.43;;
24745;SDS011;12845;52.042;6.838;2023-04-01T19:02:17;4.20;;;3.80;;
24745;SDS011;12845;52.042;6.838;2023-04-01T19:05:14;9.25;;;7.63;;
24745;SDS011;12845;52.042;6.838;2023-04-01T19:16:53;5.78;;;5.15;;
24745;SDS011;12845;52.042;6.838;2023-04-01T19:30:57;9.18;;;6.03;;
24745;SDS011;12845;52.042;6.838;2023-04-01T19:33:36;5.70;;;4.10;;
24745;SDS011;12845;52.042;6.838;2023-04-01T19:41:51;5.60;;;5.05;;
24745;SDS011;12845;52.042;6.838;2023-04-01T19:47:02;4.80;;;4.30;;
24745;SDS011;12845;52.042;6.838;2023-04-01T19:49:55;4.38;;;3.97;;
24745;SDS011;12845;52.042;6.838;2023-04-01T19:52:45;5.85;;;4.28;;
24745;SDS011;12845;52.042;6.838;2023-04-01T19:55:34;4.82;;;4.32;;
24745;SDS011;12845;52.042;6.838;2023-04-01T19:58:13;4.30;;;3.90;;
24745;SDS011;12845;52.042;6.838;2023-04-01T20:00:41;4.47;;;4.07;;
24745;SDS011;12845;52.042;6.838;2023-04-01T20:05:56;4.25;;;3.85;;
24745;SDS011;12845;52.042;6.838;2023-04-01T20:08:45;4.05;;;3.65;;
24745;SDS011;12845;52.042;6.838;2023-04-01T20:16:48;4.15;;;3.75;;
24745;SDS011;12845;52.042;6.838;2023-04-01T20:19:19;4.93;;;4.43;;
24745;SDS011;12845;52.042;6.838;2023-04-01T20:21:51;5.03;;;4.53;;
24745;SDS011;12845;52.042;6.838;2023-04-01T20:24:25;5.20;;;4.70;;
24745;SDS011;12845;52.042;6.838;2023-04-01T20:27:02;4.72;;;4.32;;
24745;SDS011;12845;52.042;6.838;2023-04-01T20:32:37;5.18;;;4.68;;
24745;SDS011;12845;52.042;6.838;2023-04-01T20:40:45;4.60;;;4.10;;
24745;SDS011;12845;52.042;6.838;2023-04-01T20:46:14;5.38;;;4.78;;
24745;SDS011;12845;52.042;6.838;2023-04-01T20:48:51;5.88;;;5.30;;
24745;SDS011;12845;52.042;6.838;2023-04-01T20:51:38;5.60;;;4.70;;
24745;SDS011;12845;52.042;6.838;2023-04-01T20:59:39;5.25;;;4.75;;
24745;SDS011;12845;52.042;6.838;2023-04-01T21:02:34;6.22;;;5.63;;
24745;SDS011;12845;52.042;6.838;2023-04-01T21:05:20;5.70;;;4.95;;
24745;SDS011;12845;52.042;6.838;2023-04-01T21:10:43;7.35;;;5.72;;
24745;SDS011;12845;52.042;6.838;2023-04-01T21:19:36;7.40;;;6.70;;
24745;SDS011;12845;52.042;6.838;2023-04-01T21:40:41;6.13;;;5.53;;
24745;SDS011;12845;52.042;6.838;2023-04-01T21:57:52;4.45;;;4.00;;
24745;SDS011;12845;52.042;6.838;2023-04-01T22:09:19;6.65;;;5.53;;
24745;SDS011;12845;52.042;6.838;2023-04-01T22:19:56;5.30;;;4.78;;
24745;SDS011;12845;52.042;6.838;2023-04-01T22:25:19;5.40;;;4.60;;
24745;SDS011;12845;52.042;6.838;2023-04-01T22:28:09;5.25;;;4.50;;
24745;SDS011;12845;52.042;6.838;2023-04-01T22:30:41;5.97;;;5.38;;
24745;SDS011;12845;52.042;6.838;2023-04-01T22:41:46;6.82;;;5.63;;
24745;SDS011;12845;52.042;6.838;2023-04-01T22:44:28;8.15;;;6.10;;
24745;SDS011;12845;52.042;6.838;2023-04-01T22:50:08;6.88;;;6.13;;
24745;SDS011;12845;52.042;6.838;2023-04-01T22:52:44;8.02;;;6.15;;
24745;SDS011;12845;52.042;6.838;2023-04-01T23:00:30;10.65;;;7.97;;
24745;SDS011;12845;52.042;6.838;2023-04-01T23:05:56;8.77;;;7.35;;
24745;SDS011;12845;52.042;6.838;2023-04-01T23:10:58;7.72;;;6.63;;
24745;SDS011;12845;52.042;6.838;2023-04-01T23:13:33;7.50;;;5.90;;
24745;SDS011;12845;52.042;6.838;2023-04-01T23:16:05;8.35;;;6.25;;
24745;SDS011;12845;52.042;6.838;2023-04-01T23:26:15;9.95;;;7.30;;
24745;SDS011;12845;52.042;6.838;2023-04-01T23:28:53;10.73;;;7.07;;
24745;SDS011;12845;52.042;6.838;2023-04-01T23:36:46;9.75;;;7.55;;
24745;SDS011;12845;52.042;6.838;2023-04-01T23:42:04;8.00;;;6.43;;
24745;SDS011;12845;52.042;6.838;2023-04-01T23:46:58;7.30;;;6.10;;
24745;SDS011;12845;52.042;6.838;2023-04-01T23:49:44;7.65;;;5.30;;
24745;SDS011;12845;52.042;6.838;2023-04-01T23:52:35;7.22;;;5.75;;
24745;SDS011;12845;52.042;6.838;2023-04-01T23:55:24;8.07;;;5.63;;
24745;SDS011;12845;52.042;6.838;2023-04-01T23:58:06;6.47;;;5.28;;
